sensor_id;sensor_type;location;lat;lon;timestamp;pressure;altitude;pressure_sealevel;temperature;humidity
68107;BME280;54892;47.488;19.026;2024-03-02T00:02:40;99388.38;;;10.79;95.41
68107;BME280;54892;47.488;19.026;2024-03-02T00:06:04;99387.03;;;10.76;95.72
68107;BME280;54892;47.488;19.026;2024-03-02T00:09:29;99402.41;;;10.69;96.04
68107;BME280;54892;47.488;19.026;2024-03-02T00:12:52;99381.03;;;10.65;96.65
68107;BME280;54892;47.488;19.026;2024-03-02T00:16:15;99375.25;;;10.58;97.27
68107;BME280;54892;47.488;19.026;2024-03-02T00:19:40;99368.16;;;10.54;97.69
68107;BME280;54892;47.488;19.026;2024-03-02T00:23:05;99365.00;;;10.51;98.26
68107;BME280;54892;47.488;19.026;2024-03-02T00:26:29;99360.28;;;10.38;98.68
68107;BME280;54892;47.488;19.026;2024-03-02T00:29:52;99361.34;;;10.42;98.88
68107;BME280;54892;47.488;19.026;2024-03-02T00:33:16;99363.16;;;10.42;98.63
68107;BME280;54892;47.488;19.026;2024-03-02T00:36:39;99356.59;;;10.39;97.92
68107;BME280;54892;47.488;19.026;2024-03-02T00:40:02;99370.56;;;10.24;98.54
68107;BME280;54892;47.488;19.026;2024-03-02T00:43:43;99372.72;;;10.17;98.82
68107;BME280;54892;47.488;19.026;2024-03-02T00:47:07;99380.34;;;10.13;98.95
68107;BME280;54892;47.488;19.026;2024-03-02T00:50:30;99370.09;;;10.17;98.71
68107;BME280;54892;47.488;19.026;2024-03-02T00:53:55;99376.66;;;10.25;97.31
68107;BME280;54892;47.488;19.026;2024-03-02T00:57:18;99381.94;;;10.25;95.65
68107;BME280;54892;47.488;19.026;2024-03-02T01:00:43;99382.47;;;10.21;95.96
68107;BME280;54892;47.488;19.026;2024-03-02T01:04:07;99377.44;;;10.20;95.38
68107;BME280;54892;47.488;19.026;2024-03-02T01:07:30;99373.75;;;10.21;95.77
68107;BME280;54892;47.488;19.026;2024-03-02T01:10:53;99379.00;;;10.31;93.60
68107;BME280;54892;47.488;19.026;2024-03-02T01:14:16;99374.50;;;10.32;93.25
68107;BME280;54892;47.488;19.026;2024-03-02T01:17:40;99377.97;;;10.22;92.56
68107;BME280;54892;47.488;19.026;2024-03-02T01:21:04;99373.75;;;10.21;92.12
68107;BME280;54892;47.488;19.026;2024-03-02T01:24:27;99373.25;;;10.19;92.20
68107;BME280;54892;47.488;19.026;2024-03-02T01:27:50;99358.72;;;10.16;91.54
68107;BME280;54892;47.488;19.026;2024-03-02T01:31:13;99354.50;;;10.20;90.30
68107;BME280;54892;47.488;19.026;2024-03-02T01:34:38;99344.47;;;10.23;89.56
68107;BME280;54892;47.488;19.026;2024-03-02T01:38:01;99343.44;;;10.24;89.49
68107;BME280;54892;47.488;19.026;2024-03-02T01:41:24;99333.41;;;10.15;90.18
68107;BME280;54892;47.488;19.026;2024-03-02T01:44:47;99330.78;;;10.15;90.81
68107;BME280;54892;47.488;19.026;2024-03-02T01:48:11;99323.37;;;10.17;90.94
68107;BME280;54892;47.488;19.026;2024-03-02T01:51:35;99316.53;;;10.21;90.76
68107;BME280;54892;47.488;19.026;2024-03-02T01:54:58;99322.31;;;10.24;90.64
68107;BME280;54892;47.488;19.026;2024-03-02T01:58:21;99322.34;;;10.18;90.29
68107;BME280;54892;47.488;19.026;2024-03-02T02:01:45;99329.72;;;10.16;90.40
68107;BME280;54892;47.488;19.026;2024-03-02T02:05:08;99331.31;;;10.12;91.03
68107;BME280;54892;47.488;19.026;2024-03-02T02:08:33;99341.38;;;10.05;91.48
68107;BME280;54892;47.488;19.026;2024-03-02T02:11:56;99342.16;;;10.00;92.21
68107;BME280;54892;47.488;19.026;2024-03-02T02:15:23;99350.56;;;10.08;91.50
68107;BME280;54892;47.488;19.026;2024-03-02T02:18:47;99355.84;;;10.08;91.44
68107;BME280;54892;47.488;19.026;2024-03-02T02:22:11;99360.63;;;10.00;92.12
68107;BME280;54892;47.488;19.026;2024-03-02T02:25:35;99360.87;;;10.04;92.01
68107;BME280;54892;47.488;19.026;2024-03-02T02:28:58;99370.88;;;10.12;92.09
68107;BME280;54892;47.488;19.026;2024-03-02T02:32:21;99361.41;;;10.06;92.62
68107;BME280;54892;47.488;19.026;2024-03-02T02:35:44;99363.50;;;10.04;93.25
68107;BME280;54892;47.488;19.026;2024-03-02T02:39:11;99368.75;;;10.19;89.99
68107;BME280;54892;47.488;19.026;2024-03-02T02:42:35;99369.56;;;10.04;91.10
68107;BME280;54892;47.488;19.026;2024-03-02T02:45:58;99361.13;;;10.08;92.51
68107;BME280;54892;47.488;19.026;2024-03-02T02:49:21;99363.22;;;10.05;93.47
68107;BME280;54892;47.488;19.026;2024-03-02T02:52:45;99359.28;;;10.03;91.26
68107;BME280;54892;47.488;19.026;2024-03-02T02:56:09;99350.59;;;10.02;90.20
68107;BME280;54892;47.488;19.026;2024-03-02T02:59:32;99346.09;;;10.08;89.75
68107;BME280;54892;47.488;19.026;2024-03-02T03:02:55;99351.91;;;10.00;88.78
68107;BME280;54892;47.488;19.026;2024-03-02T03:06:18;99347.69;;;9.99;88.70
68107;BME280;54892;47.488;19.026;2024-03-02T03:09:41;99348.75;;;10.03;89.06
68107;BME280;54892;47.488;19.026;2024-03-02T03:13:06;99361.41;;;10.01;90.84
68107;BME280;54892;47.488;19.026;2024-03-02T03:16:30;99364.84;;;10.01;89.45
68107;BME280;54892;47.488;19.026;2024-03-02T03:19:53;99367.19;;;9.98;87.36
68107;BME280;54892;47.488;19.026;2024-03-02T03:23:17;99370.13;;;10.01;85.82
68107;BME280;54892;47.488;19.026;2024-03-02T03:26:40;99362.22;;;10.01;85.96
68107;BME280;54892;47.488;19.026;2024-03-02T03:30:05;99360.31;;;10.12;84.66
68107;BME280;54892;47.488;19.026;2024-03-02T03:33:28;99359.00;;;10.10;85.83
68107;BME280;54892;47.488;19.026;2024-03-02T03:36:51;99358.22;;;9.99;86.26
68107;BME280;54892;47.488;19.026;2024-03-02T03:40:15;99357.72;;;10.02;87.20
68107;BME280;54892;47.488;19.026;2024-03-02T03:43:38;99361.94;;;10.03;87.40
68107;BME280;54892;47.488;19.026;2024-03-02T03:47:03;99365.88;;;10.05;87.01
68107;BME280;54892;47.488;19.026;2024-03-02T03:50:26;99369.03;;;10.08;84.59
68107;BME280;54892;47.488;19.026;2024-03-02T03:53:49;99374.84;;;9.99;85.38
68107;BME280;54892;47.488;19.026;2024-03-02T03:57:12;99380.38;;;10.03;84.74
68107;BME280;54892;47.488;19.026;2024-03-02T04:00:35;99378.56;;;9.98;85.85
68107;BME280;54892;47.488;19.026;2024-03-02T04:03:59;99378.56;;;10.03;85.40
68107;BME280;54892;47.488;19.026;2024-03-02T04:07:23;99393.31;;;9.99;86.17
68107;BME280;54892;47.488;19.026;2024-03-02T04:10:46;99392.50;;;10.04;85.53
68107;BME280;54892;47.488;19.026;2024-03-02T04:14:10;99391.47;;;10.00;86.07
68107;BME280;54892;47.488;19.026;2024-03-02T04:17:34;99394.91;;;9.80;87.69
68107;BME280;54892;47.488;19.026;2024-03-02T04:20:59;99398.59;;;9.94;87.74
68107;BME280;54892;47.488;19.026;2024-03-02T04:24:22;99401.75;;;9.81;88.76
68107;BME280;54892;47.488;19.026;2024-03-02T04:27:45;99401.50;;;9.72;90.10
68107;BME280;54892;47.488;19.026;2024-03-02T04:31:09;99402.56;;;9.76;90.72
68107;BME280;54892;47.488;19.026;2024-03-02T04:34:32;99401.50;;;9.72;91.33
68107;BME280;54892;47.488;19.026;2024-03-02T04:37:56;99402.53;;;9.71;93.01
68107;BME280;54892;47.488;19.026;2024-03-02T04:41:19;99408.09;;;9.64;93.34
68107;BME280;54892;47.488;19.026;2024-03-02T04:44:42;99403.09;;;9.63;94.66
68107;BME280;54892;47.488;19.026;2024-03-02T04:48:06;99398.59;;;9.58;95.63
68107;BME280;54892;47.488;19.026;2024-03-02T04:51:29;99398.06;;;9.56;95.87
68107;BME280;54892;47.488;19.026;2024-03-02T04:54:54;99402.53;;;9.55;95.42
68107;BME280;54892;47.488;19.026;2024-03-02T04:58:41;99400.97;;;9.49;96.42
68107;BME280;54892;47.488;19.026;2024-03-02T05:02:04;99405.97;;;9.51;97.25
68107;BME280;54892;47.488;19.026;2024-03-02T05:05:27;99403.34;;;9.51;98.08
68107;BME280;54892;47.488;19.026;2024-03-02T05:08:50;99407.03;;;9.50;98.21
68107;BME280;54892;47.488;19.026;2024-03-02T05:12:15;99400.44;;;9.47;98.42
68107;BME280;54892;47.488;19.026;2024-03-02T05:16:02;99404.38;;;9.39;99.34
68107;BME280;54892;47.488;19.026;2024-03-02T05:19:25;99408.84;;;9.39;100.00
68107;BME280;54892;47.488;19.026;2024-03-02T05:22:48;99407.81;;;9.45;100.00
68107;BME280;54892;47.488;19.026;2024-03-02T05:26:11;99411.25;;;9.40;100.00
68107;BME280;54892;47.488;19.026;2024-03-02T05:29:36;99412.53;;;9.43;99.62
68107;BME280;54892;47.488;19.026;2024-03-02T05:32:59;99410.66;;;9.28;100.00
68107;BME280;54892;47.488;19.026;2024-03-02T05:36:22;99408.31;;;9.42;100.00
68107;BME280;54892;47.488;19.026;2024-03-02T05:39:45;99404.34;;;9.29;100.00
68107;BME280;54892;47.488;19.026;2024-03-02T05:43:08;99405.66;;;9.21;100.00
68107;BME280;54892;47.488;19.026;2024-03-02T05:46:33;99397.00;;;9.26;100.00
68107;BME280;54892;47.488;19.026;2024-03-02T05:49:56;99407.78;;;9.24;100.00
68107;BME280;54892;47.488;19.026;2024-03-02T05:53:19;99411.72;;;9.22;100.00
68107;BME280;54892;47.488;19.026;2024-03-02T05:56:42;99415.44;;;9.26;100.00
68107;BME280;54892;47.488;19.026;2024-03-02T06:00:06;99419.09;;;9.20;100.00
68107;BME280;54892;47.488;19.026;2024-03-02T06:03:31;99431.75;;;9.23;100.00
68107;BME280;54892;47.488;19.026;2024-03-02T06:06:54;99435.94;;;9.19;100.00
68107;BME280;54892;47.488;19.026;2024-03-02T06:10:18;99438.53;;;9.13;100.00
68107;BME280;54892;47.488;19.026;2024-03-02T06:13:41;99441.97;;;9.14;100.00
68107;BME280;54892;47.488;19.026;2024-03-02T06:17:04;99445.16;;;9.21;100.00
68107;BME280;54892;47.488;19.026;2024-03-02T06:20:28;99452.81;;;9.28;100.00
68107;BME280;54892;47.488;19.026;2024-03-02T06:23:54;99447.25;;;9.19;100.00
68107;BME280;54892;47.488;19.026;2024-03-02T06:27:18;99446.19;;;9.20;100.00
68107;BME280;54892;47.488;19.026;2024-03-02T06:30:41;99440.44;;;9.28;100.00
68107;BME280;54892;47.488;19.026;2024-03-02T06:34:05;99452.28;;;9.26;100.00
68107;BME280;54892;47.488;19.026;2024-03-02T06:37:29;99451.75;;;9.29;100.00
68107;BME280;54892;47.488;19.026;2024-03-02T06:40:52;99447.00;;;9.21;100.00
68107;BME280;54892;47.488;19.026;2024-03-02T06:44:15;99462.56;;;9.38;100.00
68107;BME280;54892;47.488;19.026;2024-03-02T06:47:38;99455.69;;;9.16;100.00
68107;BME280;54892;47.488;19.026;2024-03-02T06:51:01;99454.63;;;9.17;100.00
68107;BME280;54892;47.488;19.026;2024-03-02T06:54:26;99450.16;;;9.28;100.00
68107;BME280;54892;47.488;19.026;2024-03-02T06:57:49;99455.44;;;9.23;100.00
68107;BME280;54892;47.488;19.026;2024-03-02T07:01:12;99455.72;;;9.32;100.00
68107;BME280;54892;47.488;19.026;2024-03-02T07:04:35;99455.69;;;9.21;100.00
68107;BME280;54892;47.488;19.026;2024-03-02T07:07:58;99459.09;;;9.17;100.00
68107;BME280;54892;47.488;19.026;2024-03-02T07:11:24;99461.75;;;9.22;100.00
68107;BME280;54892;47.488;19.026;2024-03-02T07:14:47;99462.03;;;9.25;100.00
68107;BME280;54892;47.488;19.026;2024-03-02T07:18:29;99455.69;;;9.21;100.00
68107;BME280;54892;47.488;19.026;2024-03-02T07:21:52;99462.53;;;9.22;100.00
68107;BME280;54892;47.488;19.026;2024-03-02T07:25:16;99471.28;;;9.38;100.00
68107;BME280;54892;47.488;19.026;2024-03-02T07:28:43;99471.28;;;9.38;100.00
68107;BME280;54892;47.488;19.026;2024-03-02T07:32:07;99471.78;;;9.25;100.00
68107;BME280;54892;47.488;19.026;2024-03-02T07:35:30;99474.69;;;9.34;100.00
68107;BME280;54892;47.488;19.026;2024-03-02T07:38:54;99470.47;;;9.38;100.00
68107;BME280;54892;47.488;19.026;2024-03-02T07:42:17;99480.22;;;9.37;100.00
68107;BME280;54892;47.488;19.026;2024-03-02T07:45:42;99477.09;;;9.40;100.00
68107;BME280;54892;47.488;19.026;2024-03-02T07:49:05;99475.75;;;9.38;100.00
68107;BME280;54892;47.488;19.026;2024-03-02T07:52:28;99476.31;;;9.45;100.00
68107;BME280;54892;47.488;19.026;2024-03-02T07:55:51;99481.31;;;9.41;100.00
68107;BME280;54892;47.488;19.026;2024-03-02T07:59:14;99487.88;;;9.39;100.00
68107;BME280;54892;47.488;19.026;2024-03-02T08:02:39;99480.75;;;9.39;100.00
68107;BME280;54892;47.488;19.026;2024-03-02T08:06:04;99491.28;;;9.34;100.00
68107;BME280;54892;47.488;19.026;2024-03-02T08:09:27;99496.03;;;9.37;100.00
68107;BME280;54892;47.488;19.026;2024-03-02T08:12:50;99498.91;;;9.36;100.00
68107;BME280;54892;47.488;19.026;2024-03-02T08:16:13;99490.81;;;9.53;100.00
68107;BME280;54892;47.488;19.026;2024-03-02T08:19:38;99494.97;;;9.43;100.00
68107;BME280;54892;47.488;19.026;2024-03-02T08:23:01;99488.63;;;9.29;100.00
68107;BME280;54892;47.488;19.026;2024-03-02T08:26:24;99490.97;;;9.20;100.00
68107;BME280;54892;47.488;19.026;2024-03-02T08:29:50;99498.09;;;9.25;100.00
68107;BME280;54892;47.488;19.026;2024-03-02T08:33:13;99492.59;;;9.37;100.00
68107;BME280;54892;47.488;19.026;2024-03-02T08:36:38;99497.09;;;9.36;100.00
68107;BME280;54892;47.488;19.026;2024-03-02T08:40:01;99490.72;;;9.27;100.00
68107;BME280;54892;47.488;19.026;2024-03-02T08:43:26;99493.13;;;9.34;100.00
68107;BME280;54892;47.488;19.026;2024-03-02T08:46:49;99493.66;;;9.36;100.00
68107;BME280;54892;47.488;19.026;2024-03-02T08:50:12;99501.25;;;9.27;100.00
68107;BME280;54892;47.488;19.026;2024-03-02T08:53:36;99497.87;;;9.32;100.00
68107;BME280;54892;47.488;19.026;2024-03-02T08:57:00;99497.56;;;9.28;100.00
68107;BME280;54892;47.488;19.026;2024-03-02T09:00:23;99490.72;;;9.22;100.00
68107;BME280;54892;47.488;19.026;2024-03-02T09:03:47;99495.19;;;9.26;100.00
68107;BME280;54892;47.488;19.026;2024-03-02T09:07:11;99498.91;;;9.36;100.00
68107;BME280;54892;47.488;19.026;2024-03-02T09:10:35;99493.13;;;9.34;100.00
68107;BME280;54892;47.488;19.026;2024-03-02T09:14:00;99497.31;;;9.35;100.00
68107;BME280;54892;47.488;19.026;2024-03-02T09:17:23;99490.44;;;9.23;100.00
68107;BME280;54892;47.488;19.026;2024-03-02T09:20:46;99495.22;;;9.32;100.00
68107;BME280;54892;47.488;19.026;2024-03-02T09:24:09;99497.63;;;9.43;100.00
68107;BME280;54892;47.488;19.026;2024-03-02T09:27:36;99503.16;;;9.52;100.00
68107;BME280;54892;47.488;19.026;2024-03-02T09:31:00;99497.87;;;9.42;100.00
68107;BME280;54892;47.488;19.026;2024-03-02T09:34:23;99497.63;;;9.38;100.00
68107;BME280;54892;47.488;19.026;2024-03-02T09:37:46;99504.19;;;9.36;100.00
68107;BME280;54892;47.488;19.026;2024-03-02T09:41:10;99502.09;;;9.33;100.00
68107;BME280;54892;47.488;19.026;2024-03-02T09:44:35;99501.50;;;9.20;100.00
68107;BME280;54892;47.488;19.026;2024-03-02T09:47:58;99506.25;;;9.18;100.00
68107;BME280;54892;47.488;19.026;2024-03-02T09:51:21;99499.63;;;9.16;100.00
68107;BME280;54892;47.488;19.026;2024-03-02T09:54:44;99503.63;;;9.18;100.00
68107;BME280;54892;47.488;19.026;2024-03-02T09:58:07;99494.12;;;9.22;100.00
68107;BME280;54892;47.488;19.026;2024-03-02T10:01:31;99497.87;;;9.32;100.00
68107;BME280;54892;47.488;19.026;2024-03-02T10:04:55;99500.53;;;9.47;100.00
68107;BME280;54892;47.488;19.026;2024-03-02T10:08:18;99504.22;;;9.46;100.00
68107;BME280;54892;47.488;19.026;2024-03-02T10:11:41;99501.59;;;9.51;100.00
68107;BME280;54892;47.488;19.026;2024-03-02T10:15:04;99504.75;;;9.43;100.00
68107;BME280;54892;47.488;19.026;2024-03-02T10:18:30;99498.94;;;9.41;100.00
68107;BME280;54892;47.488;19.026;2024-03-02T10:21:54;99498.44;;;9.54;100.00
68107;BME280;54892;47.488;19.026;2024-03-02T10:25:29;99501.62;;;9.62;100.00
68107;BME280;54892;47.488;19.026;2024-03-02T10:28:57;99500.00;;;9.45;100.00
68107;BME280;54892;47.488;19.026;2024-03-02T10:32:22;99505.28;;;9.45;100.00
68107;BME280;54892;47.488;19.026;2024-03-02T10:35:47;99508.41;;;9.42;100.00
68107;BME280;54892;47.488;19.026;2024-03-02T10:39:14;99499.22;;;9.50;100.00
68107;BME280;54892;47.488;19.026;2024-03-02T10:42:37;99498.66;;;9.32;100.00
68107;BME280;54892;47.488;19.026;2024-03-02T10:46:01;99491.03;;;9.51;100.00
68107;BME280;54892;47.488;19.026;2024-03-02T10:49:26;99497.84;;;9.37;100.00
68107;BME280;54892;47.488;19.026;2024-03-02T10:52:51;99486.31;;;9.43;100.00
68107;BME280;54892;47.488;19.026;2024-03-02T10:56:16;99488.94;;;9.43;100.00
68107;BME280;54892;47.488;19.026;2024-03-02T10:59:51;99495.78;;;9.44;100.00
68107;BME280;54892;47.488;19.026;2024-03-02T11:03:15;99490.28;;;9.56;100.00
68107;BME280;54892;47.488;19.026;2024-03-02T11:06:41;99495.28;;;9.57;100.00
68107;BME280;54892;47.488;19.026;2024-03-02T11:10:09;99491.63;;;9.69;100.00
68107;BME280;54892;47.488;19.026;2024-03-02T11:13:33;99488.44;;;9.67;100.00
68107;BME280;54892;47.488;19.026;2024-03-02T11:16:58;99483.16;;;9.67;100.00
68107;BME280;54892;47.488;19.026;2024-03-02T11:20:21;99477.91;;;9.56;100.00
68107;BME280;54892;47.488;19.026;2024-03-02T11:23:45;99475.53;;;9.55;100.00
68107;BME280;54892;47.488;19.026;2024-03-02T11:27:10;99466.84;;;9.59;100.00
68107;BME280;54892;47.488;19.026;2024-03-02T11:30:50;99468.94;;;9.68;100.00
68107;BME280;54892;47.488;19.026;2024-03-02T11:34:28;99468.94;;;9.68;100.00
68107;BME280;54892;47.488;19.026;2024-03-02T11:37:52;99465.28;;;9.64;100.00
68107;BME280;54892;47.488;19.026;2024-03-02T11:41:15;99464.22;;;9.70;100.00
68107;BME280;54892;47.488;19.026;2024-03-02T11:44:42;99460.53;;;9.81;100.00
68107;BME280;54892;47.488;19.026;2024-03-02T11:48:08;99470.28;;;9.86;100.00
68107;BME280;54892;47.488;19.026;2024-03-02T11:51:35;99463.19;;;9.92;100.00
68107;BME280;54892;47.488;19.026;2024-03-02T11:54:58;99464.47;;;9.89;100.00
68107;BME280;54892;47.488;19.026;2024-03-02T11:58:21;99470.56;;;9.89;100.00
68107;BME280;54892;47.488;19.026;2024-03-02T12:01:47;99463.44;;;9.95;100.00
68107;BME280;54892;47.488;19.026;2024-03-02T12:05:10;99465.28;;;10.00;100.00
68107;BME280;54892;47.488;19.026;2024-03-02T12:08:34;99462.38;;;10.01;100.00
68107;BME280;54892;47.488;19.026;2024-03-02T12:12:04;99467.37;;;9.98;100.00
68107;BME280;54892;47.488;19.026;2024-03-02T12:15:29;99458.41;;;9.99;100.00
68107;BME280;54892;47.488;19.026;2024-03-02T12:18:54;99462.13;;;9.87;100.00
68107;BME280;54892;47.488;19.026;2024-03-02T12:22:17;99463.44;;;9.90;100.00
68107;BME280;54892;47.488;19.026;2024-03-02T12:25:41;99459.75;;;9.91;100.00
68107;BME280;54892;47.488;19.026;2024-03-02T12:29:04;99461.06;;;9.94;100.00
68107;BME280;54892;47.488;19.026;2024-03-02T12:32:27;99471.88;;;10.02;100.00
68107;BME280;54892;47.488;19.026;2024-03-02T12:35:51;99460.78;;;9.95;100.00
68107;BME280;54892;47.488;19.026;2024-03-02T12:39:15;99463.72;;;9.94;100.00
68107;BME280;54892;47.488;19.026;2024-03-02T12:42:38;99465.53;;;9.93;100.00
68107;BME280;54892;47.488;19.026;2024-03-02T12:46:03;99465.78;;;9.97;100.00
68107;BME280;54892;47.488;19.026;2024-03-02T12:49:26;99463.69;;;9.88;100.00
68107;BME280;54892;47.488;19.026;2024-03-02T12:52:52;99464.50;;;9.84;100.00
68107;BME280;54892;47.488;19.026;2024-03-02T12:56:17;99467.91;;;9.84;100.00
68107;BME280;54892;47.488;19.026;2024-03-02T12:59:45;99470.81;;;9.78;100.00
68107;BME280;54892;47.488;19.026;2024-03-02T13:03:08;99470.00;;;9.72;100.00
68107;BME280;54892;47.488;19.026;2024-03-02T13:06:33;99474.78;;;9.80;100.00
68107;BME280;54892;47.488;19.026;2024-03-02T13:09:58;99464.25;;;9.80;100.00
68107;BME280;54892;47.488;19.026;2024-03-02T13:13:21;99462.63;;;9.74;100.00
68107;BME280;54892;47.488;19.026;2024-03-02T13:16:45;99463.69;;;9.73;100.00
68107;BME280;54892;47.488;19.026;2024-03-02T13:20:09;99462.09;;;9.72;100.00
68107;BME280;54892;47.488;19.026;2024-03-02T13:23:33;99459.72;;;9.65;100.00
68107;BME280;54892;47.488;19.026;2024-03-02T13:26:57;99463.16;;;9.71;100.00
68107;BME280;54892;47.488;19.026;2024-03-02T13:30:21;99466.31;;;9.63;100.00
68107;BME280;54892;47.488;19.026;2024-03-02T13:33:44;99470.53;;;9.64;100.00
68107;BME280;54892;47.488;19.026;2024-03-02T13:37:08;99460.00;;;9.69;100.00
68107;BME280;54892;47.488;19.026;2024-03-02T13:40:31;99463.97;;;9.71;100.00
68107;BME280;54892;47.488;19.026;2024-03-02T13:43:58;99472.63;;;9.67;100.00
68107;BME280;54892;47.488;19.026;2024-03-02T13:47:23;99483.41;;;9.50;100.00
68107;BME280;54892;47.488;19.026;2024-03-02T13:50:46;99474.16;;;9.37;100.00
68107;BME280;54892;47.488;19.026;2024-03-02T13:54:09;99481.00;;;9.27;100.00
68107;BME280;54892;47.488;19.026;2024-03-02T13:57:33;99482.34;;;9.40;100.00
68107;BME280;54892;47.488;19.026;2024-03-02T14:00:57;99484.69;;;9.37;100.00
68107;BME280;54892;47.488;19.026;2024-03-02T14:04:20;99487.88;;;9.44;100.00
68107;BME280;54892;47.488;19.026;2024-03-02T14:07:43;99482.09;;;9.47;100.00
68107;BME280;54892;47.488;19.026;2024-03-02T14:11:06;99489.19;;;9.41;100.00
68107;BME280;54892;47.488;19.026;2024-03-02T14:14:31;99488.41;;;9.41;100.00
68107;BME280;54892;47.488;19.026;2024-03-02T14:17:56;99491.06;;;9.46;100.00
68107;BME280;54892;47.488;19.026;2024-03-02T14:21:19;99492.34;;;9.38;100.00
68107;BME280;54892;47.488;19.026;2024-03-02T14:24:42;99495.78;;;9.34;100.00
68107;BME280;54892;47.488;19.026;2024-03-02T14:28:05;99500.50;;;9.37;100.00
68107;BME280;54892;47.488;19.026;2024-03-02T14:31:29;99501.31;;;9.37;100.00
68107;BME280;54892;47.488;19.026;2024-03-02T14:34:54;99491.53;;;9.27;100.00
68107;BME280;54892;47.488;19.026;2024-03-02T14:38:17;99498.34;;;9.18;100.00
68107;BME280;54892;47.488;19.026;2024-03-02T14:41:40;99494.94;;;9.23;100.00
68107;BME280;54892;47.488;19.026;2024-03-02T14:45:04;99491.75;;;9.21;100.00
68107;BME280;54892;47.488;19.026;2024-03-02T14:48:27;99491.28;;;9.34;100.00
68107;BME280;54892;47.488;19.026;2024-03-02T14:51:51;99494.12;;;9.22;100.00
68107;BME280;54892;47.488;19.026;2024-03-02T14:55:15;99488.09;;;9.27;100.00
68107;BME280;54892;47.488;19.026;2024-03-02T14:58:38;99489.19;;;9.36;100.00
68107;BME280;54892;47.488;19.026;2024-03-02T15:02:01;99487.56;;;9.30;100.00
68107;BME280;54892;47.488;19.026;2024-03-02T15:05:24;99489.13;;;9.21;100.00
68107;BME280;54892;47.488;19.026;2024-03-02T15:08:50;99485.75;;;9.31;100.00
68107;BME280;54892;47.488;19.026;2024-03-02T15:12:13;99489.19;;;9.47;100.00
68107;BME280;54892;47.488;19.026;2024-03-02T15:15:36;99485.22;;;9.34;100.00
68107;BME280;54892;47.488;19.026;2024-03-02T15:18:59;99482.53;;;9.23;100.00
68107;BME280;54892;47.488;19.026;2024-03-02T15:22:22;99480.47;;;9.31;100.00
68107;BME280;54892;47.488;19.026;2024-03-02T15:25:48;99478.88;;;9.35;100.00
68107;BME280;54892;47.488;19.026;2024-03-02T15:29:11;99485.75;;;9.41;100.00
68107;BME280;54892;47.488;19.026;2024-03-02T15:32:34;99485.22;;;9.39;100.00
68107;BME280;54892;47.488;19.026;2024-03-02T15:35:58;99481.06;;;9.48;100.00
68107;BME280;54892;47.488;19.026;2024-03-02T15:39:22;99483.66;;;9.43;100.00
68107;BME280;54892;47.488;19.026;2024-03-02T15:42:47;99492.63;;;9.42;100.00
68107;BME280;54892;47.488;19.026;2024-03-02T15:46:10;99485.25;;;9.44;100.00
68107;BME280;54892;47.488;19.026;2024-03-02T15:49:33;99488.97;;;9.48;100.00
68107;BME280;54892;47.488;19.026;2024-03-02T15:52:56;99489.47;;;9.50;100.00
68107;BME280;54892;47.488;19.026;2024-03-02T15:56:24;99490.56;;;9.59;100.00
68107;BME280;54892;47.488;19.026;2024-03-02T15:59:49;99488.41;;;9.46;100.00
68107;BME280;54892;47.488;19.026;2024-03-02T16:03:12;99487.62;;;9.40;100.00
68107;BME280;54892;47.488;19.026;2024-03-02T16:06:35;99486.03;;;9.39;100.00
68107;BME280;54892;47.488;19.026;2024-03-02T16:09:58;99494.19;;;9.43;100.00
68107;BME280;54892;47.488;19.026;2024-03-02T16:13:25;99495.28;;;9.52;100.00
68107;BME280;54892;47.488;19.026;2024-03-02T16:16:50;99484.69;;;9.32;100.00
68107;BME280;54892;47.488;19.026;2024-03-02T16:20:13;99500.25;;;9.43;100.00
68107;BME280;54892;47.488;19.026;2024-03-02T16:23:36;99497.06;;;9.26;100.00
68107;BME280;54892;47.488;19.026;2024-03-02T16:26:59;99502.06;;;9.27;100.00
68107;BME280;54892;47.488;19.026;2024-03-02T16:30:23;99502.09;;;9.38;100.00
68107;BME280;54892;47.488;19.026;2024-03-02T16:33:47;99503.94;;;9.37;100.00
68107;BME280;54892;47.488;19.026;2024-03-02T16:37:10;99491.50;;;9.22;100.00
68107;BME280;54892;47.488;19.026;2024-03-02T16:40:33;99504.19;;;9.36;100.00
68107;BME280;54892;47.488;19.026;2024-03-02T16:43:57;99505.19;;;9.24;100.00
68107;BME280;54892;47.488;19.026;2024-03-02T16:47:21;99506.03;;;9.35;100.00
68107;BME280;54892;47.488;19.026;2024-03-02T16:50:45;99495.97;;;9.17;100.00
68107;BME280;54892;47.488;19.026;2024-03-02T16:54:08;99507.81;;;9.14;100.00
68107;BME280;54892;47.488;19.026;2024-03-02T16:57:31;99507.81;;;9.19;100.00
68107;BME280;54892;47.488;19.026;2024-03-02T17:00:55;99497.31;;;9.29;100.00
68107;BME280;54892;47.488;19.026;2024-03-02T17:04:18;99497.03;;;9.21;100.00
68107;BME280;54892;47.488;19.026;2024-03-02T17:07:43;99501.81;;;9.34;100.00
68107;BME280;54892;47.488;19.026;2024-03-02T17:11:06;99507.06;;;9.24;100.00
68107;BME280;54892;47.488;19.026;2024-03-02T17:14:29;99511.03;;;9.37;100.00
68107;BME280;54892;47.488;19.026;2024-03-02T17:17:52;99514.16;;;9.23;100.00
68107;BME280;54892;47.488;19.026;2024-03-02T17:21:15;99515.69;;;9.19;100.00
68107;BME280;54892;47.488;19.026;2024-03-02T17:24:40;99516.81;;;9.28;100.00
68107;BME280;54892;47.488;19.026;2024-03-02T17:28:22;99522.56;;;9.20;100.00
68107;BME280;54892;47.488;19.026;2024-03-02T17:31:45;99522.81;;;9.19;100.00
68107;BME280;54892;47.488;19.026;2024-03-02T17:35:09;99519.69;;;9.27;100.00
68107;BME280;54892;47.488;19.026;2024-03-02T17:38:32;99529.16;;;9.28;100.00
68107;BME280;54892;47.488;19.026;2024-03-02T17:41:57;99523.38;;;9.21;100.00
68107;BME280;54892;47.488;19.026;2024-03-02T17:45:20;99524.12;;;9.21;100.00
68107;BME280;54892;47.488;19.026;2024-03-02T17:48:44;99527.87;;;9.36;100.00